createdAt,value
2022-10-13T00:01:42.362Z,46.17
2022-10-13T00:04:08.706Z,46.15
2022-10-13T00:06:35.097Z,45.65
2022-10-13T00:09:01.483Z,46.15
2022-10-13T00:11:29.756Z,45.33
2022-10-13T00:13:59.141Z,45.90
2022-10-13T00:16:25.924Z,46.90
2022-10-13T00:18:52.512Z,51.30
2022-10-13T00:21:22.711Z,50.00
2022-10-13T00:23:50.081Z,46.75
2022-10-13T00:26:17.402Z,48.08
2022-10-13T00:28:48.465Z,46.75
2022-10-13T00:31:20.839Z,50.55
2022-10-13T00:33:47.367Z,49.85
2022-10-13T00:36:13.757Z,56.47
2022-10-13T00:38:40.140Z,52.33
2022-10-13T00:41:07.150Z,53.28
2022-10-13T00:43:52.073Z,50.72
2022-10-13T00:46:18.517Z,49.55
2022-10-13T00:48:46.023Z,48.55
2022-10-13T00:51:14.797Z,45.80
2022-10-13T00:53:42.143Z,41.90
2022-10-13T00:56:11.431Z,41.15
2022-10-13T00:58:40.512Z,46.60
2022-10-13T01:01:07.639Z,38.05
2022-10-13T01:03:35.089Z,44.00
2022-10-13T01:06:04.793Z,41.88
2022-10-13T01:08:32.114Z,45.00
2022-10-13T01:11:12.344Z,42.95
2022-10-13T01:13:49.727Z,39.03
2022-10-13T01:16:26.425Z,39.28
2022-10-13T01:19:16.676Z,39.40
2022-10-13T01:22:09.406Z,40.47
2022-10-13T01:24:44.783Z,47.67
2022-10-13T01:27:22.709Z,44.40
2022-10-13T01:30:07.841Z,38.60
2022-10-13T01:33:06.000Z,44.63
2022-10-13T01:35:58.089Z,42.88
2022-10-13T01:38:37.014Z,43.42
2022-10-13T01:41:28.571Z,39.47
2022-10-13T01:44:08.441Z,37.85
2022-10-13T01:46:37.899Z,42.15
2022-10-13T01:49:12.072Z,40.17
2022-10-13T01:51:39.613Z,45.67
2022-10-13T01:54:06.148Z,35.53
2022-10-13T01:56:32.626Z,45.38
2022-10-13T01:59:02.889Z,43.65
2022-10-13T02:01:56.261Z,40.33
2022-10-13T02:04:48.858Z,39.53
2022-10-13T02:07:21.225Z,45.58
2022-10-13T02:09:57.195Z,45.58
2022-10-13T02:12:34.530Z,43.40
2022-10-13T02:15:02.355Z,47.13
2022-10-13T02:17:30.821Z,48.72
2022-10-13T02:19:57.962Z,47.63
2022-10-13T02:22:31.063Z,45.65
2022-10-13T02:24:57.594Z,39.80
2022-10-13T02:27:24.164Z,39.67
2022-10-13T02:29:52.822Z,45.85
2022-10-13T02:32:19.723Z,45.03
2022-10-13T02:34:46.334Z,42.33
2022-10-13T02:37:12.728Z,37.58
2022-10-13T02:39:39.049Z,46.45
2022-10-13T02:42:05.799Z,33.85
2022-10-13T02:44:32.503Z,37.95
2022-10-13T02:46:58.981Z,46.30
2022-10-13T02:49:25.349Z,37.03
2022-10-13T02:51:53.292Z,46.95
2022-10-13T02:54:19.845Z,50.63
2022-10-13T02:56:46.446Z,51.70
2022-10-13T02:59:12.884Z,55.60
2022-10-13T03:01:41.666Z,60.53
2022-10-13T03:04:08.855Z,58.67
2022-10-13T03:06:35.488Z,46.35
2022-10-13T03:09:02.844Z,53.00
2022-10-13T03:11:29.316Z,59.15
2022-10-13T03:13:55.780Z,55.80
2022-10-13T03:16:22.424Z,58.78
2022-10-13T03:18:48.785Z,56.13
2022-10-13T03:21:15.564Z,57.08
2022-10-13T03:23:41.969Z,54.75
2022-10-13T03:26:08.352Z,55.90
2022-10-13T03:28:34.845Z,51.22
2022-10-13T03:31:03.245Z,52.83
2022-10-13T03:33:29.859Z,52.25
2022-10-13T03:35:59.338Z,50.42
2022-10-13T03:38:25.911Z,48.33
2022-10-13T03:40:52.342Z,52.53
2022-10-13T03:43:18.728Z,49.20
2022-10-13T03:45:45.070Z,50.45
2022-10-13T03:48:11.440Z,50.20
2022-10-13T03:50:37.782Z,52.40
2022-10-13T03:53:04.091Z,53.45
2022-10-13T03:55:30.433Z,47.63
2022-10-13T03:57:56.757Z,50.58
2022-10-13T04:00:23.247Z,48.38
2022-10-13T04:02:49.792Z,46.05
2022-10-13T04:05:16.635Z,47.50
2022-10-13T04:07:43.027Z,46.45
2022-10-13T04:10:11.489Z,47.40
2022-10-13T04:12:37.993Z,46.88
2022-10-13T04:15:04.709Z,50.72
2022-10-13T04:17:31.051Z,50.05
2022-10-13T04:19:57.462Z,50.88
2022-10-13T04:22:23.809Z,51.95
2022-10-13T04:24:50.330Z,55.00
2022-10-13T04:27:18.966Z,51.55
2022-10-13T04:29:45.385Z,53.22
2022-10-13T04:32:11.716Z,53.67
2022-10-13T04:34:38.076Z,54.13
2022-10-13T04:37:04.459Z,49.80
2022-10-13T04:39:30.855Z,55.83
2022-10-13T04:41:57.286Z,56.30
2022-10-13T04:44:23.752Z,56.55
2022-10-13T04:46:50.091Z,53.72
2022-10-13T04:49:17.191Z,56.40
2022-10-13T04:51:43.531Z,57.20
2022-10-13T04:54:10.135Z,59.53
2022-10-13T04:56:36.745Z,56.33
2022-10-13T04:59:05.703Z,57.53
2022-10-13T05:01:33.306Z,61.97
2022-10-13T05:04:01.559Z,54.85
2022-10-13T05:06:58.782Z,55.97
2022-10-13T05:09:27.110Z,57.05
2022-10-13T05:11:55.070Z,61.60
2022-10-13T05:14:22.131Z,57.45
2022-10-13T05:16:49.201Z,64.13
2022-10-13T05:19:15.642Z,62.22
2022-10-13T05:21:42.277Z,63.15
2022-10-13T05:24:13.519Z,57.03
2022-10-13T05:26:40.138Z,57.88
2022-10-13T05:29:06.462Z,62.72
2022-10-13T05:31:35.133Z,62.15
2022-10-13T05:34:01.877Z,59.38
2022-10-13T05:36:31.177Z,60.00
2022-10-13T05:39:00.262Z,61.10
2022-10-13T05:41:28.866Z,51.25
2022-10-13T05:43:58.973Z,49.40
2022-10-13T05:46:25.460Z,51.33
2022-10-13T05:48:52.050Z,55.05
2022-10-13T05:51:27.765Z,60.53
2022-10-13T05:54:09.535Z,58.72
2022-10-13T05:56:44.766Z,58.47
2022-10-13T05:59:15.639Z,59.33
2022-10-13T06:01:42.389Z,59.70
2022-10-13T06:04:17.345Z,59.40
2022-10-13T06:06:44.078Z,62.13
2022-10-13T06:09:10.615Z,59.08
2022-10-13T06:11:36.923Z,59.25
2022-10-13T06:14:03.311Z,62.35
2022-10-13T06:16:29.686Z,61.25
2022-10-13T06:18:56.115Z,64.93
2022-10-13T06:21:22.480Z,61.50
2022-10-13T06:23:48.805Z,64.57
2022-10-13T06:26:15.187Z,58.30
2022-10-13T06:28:43.330Z,60.47
2022-10-13T06:31:11.544Z,69.85
2022-10-13T06:33:38.053Z,62.53
2022-10-13T06:36:06.006Z,59.70
2022-10-13T06:38:33.372Z,60.58
2022-10-13T06:41:04.489Z,57.92
2022-10-13T06:43:38.719Z,55.60
2022-10-13T06:46:06.851Z,52.85
2022-10-13T06:48:33.326Z,49.35
2022-10-13T06:51:08.372Z,48.20
2022-10-13T06:53:35.283Z,49.33
2022-10-13T06:56:04.332Z,52.00
2022-10-13T06:58:30.814Z,51.85
2022-10-13T07:00:57.286Z,49.45
2022-10-13T07:03:24.998Z,49.83
2022-10-13T07:05:51.424Z,51.92
2022-10-13T07:08:17.753Z,52.67
2022-10-13T07:10:44.063Z,50.08
2022-10-13T07:13:10.585Z,45.13
2022-10-13T07:15:39.111Z,47.85
2022-10-13T07:18:05.927Z,53.55
2022-10-13T07:20:32.291Z,54.00
2022-10-13T07:22:58.677Z,49.50
2022-10-13T07:25:25.256Z,45.10
2022-10-13T07:27:51.605Z,48.97
2022-10-13T07:30:18.469Z,53.28
2022-10-13T07:32:44.817Z,54.00
2022-10-13T07:35:12.090Z,56.05
2022-10-13T07:37:38.891Z,50.88
2022-10-13T07:40:06.599Z,55.72
2022-10-13T07:42:33.446Z,50.70
2022-10-13T07:44:59.802Z,52.63
2022-10-13T07:47:26.211Z,56.78
2022-10-13T07:49:54.518Z,47.20
2022-10-13T07:52:21.269Z,48.28
2022-10-13T07:54:50.947Z,51.80
2022-10-13T07:57:17.733Z,52.67
2022-10-13T07:59:44.094Z,48.15
2022-10-13T08:02:10.429Z,50.75
2022-10-13T08:04:37.368Z,46.95
2022-10-13T08:07:05.567Z,51.33
2022-10-13T08:09:31.908Z,48.67
2022-10-13T08:12:00.829Z,51.00
2022-10-13T08:14:29.104Z,52.30
2022-10-13T08:16:55.864Z,53.15
2022-10-13T08:19:22.510Z,52.00
2022-10-13T08:21:58.593Z,48.53
2022-10-13T08:24:27.268Z,36.72
2022-10-13T08:26:53.771Z,41.83
2022-10-13T08:29:23.017Z,43.08
2022-10-13T08:31:53.656Z,47.58
2022-10-13T08:34:20.870Z,49.80
2022-10-13T08:36:47.503Z,49.72
2022-10-13T08:39:14.302Z,45.65
2022-10-13T08:41:46.648Z,40.35
2022-10-13T08:47:09.622Z,38.47
2022-10-13T08:49:36.137Z,42.33
2022-10-13T08:52:05.563Z,42.25
2022-10-13T08:54:33.460Z,44.33
2022-10-13T08:59:27.262Z,39.92
2022-10-13T09:01:55.271Z,38.42
2022-10-13T09:04:32.970Z,36.00
2022-10-13T09:07:10.426Z,36.95
2022-10-13T09:09:38.520Z,36.88
2022-10-13T09:12:06.056Z,36.97
2022-10-13T09:14:37.694Z,36.67
2022-10-13T09:17:26.394Z,38.55
2022-10-13T09:20:02.756Z,38.30
2022-10-13T09:22:29.049Z,37.03
2022-10-13T09:25:07.436Z,37.80
2022-10-13T09:27:55.027Z,39.42
2022-10-13T09:30:32.827Z,35.72
2022-10-13T09:33:08.777Z,36.78
2022-10-13T09:35:39.557Z,37.83
2022-10-13T09:38:06.849Z,40.78
2022-10-13T09:40:33.889Z,37.28
2022-10-13T09:43:02.170Z,36.10
2022-10-13T09:45:30.882Z,33.50
2022-10-13T09:48:07.436Z,36.30
2022-10-13T09:50:35.506Z,36.55
2022-10-13T09:53:20.432Z,37.65
2022-10-13T09:55:49.156Z,35.35
2022-10-13T09:58:25.047Z,38.25
2022-10-13T10:00:52.946Z,38.95
2022-10-13T10:03:35.356Z,41.92
2022-10-13T10:06:05.810Z,39.72
2022-10-13T10:09:02.301Z,41.92
2022-10-13T10:11:47.609Z,37.95
2022-10-13T10:14:28.815Z,37.65
2022-10-13T10:17:12.116Z,39.78
2022-10-13T10:19:47.866Z,35.67
2022-10-13T10:22:35.674Z,34.22
2022-10-13T10:25:10.081Z,31.48
2022-10-13T10:30:23.783Z,27.53
2022-10-13T10:33:03.340Z,27.88
2022-10-13T10:35:55.685Z,27.85
2022-10-13T10:38:40.730Z,27.27
2022-10-13T10:41:23.375Z,26.83
2022-10-13T10:43:55.353Z,27.10
2022-10-13T10:46:26.035Z,27.75
2022-10-13T10:48:57.277Z,26.50
2022-10-13T10:51:31.031Z,28.30
2022-10-13T10:54:49.078Z,29.27
2022-10-13T10:57:32.971Z,30.95
2022-10-13T11:00:19.449Z,31.52
2022-10-13T11:03:04.875Z,33.40
2022-10-13T11:05:59.790Z,32.35
2022-10-13T11:08:40.877Z,32.95
2022-10-13T11:11:26.564Z,34.97
2022-10-13T11:13:58.143Z,36.70
2022-10-13T11:16:30.633Z,38.67
2022-10-13T11:19:05.372Z,40.42
2022-10-13T11:21:53.608Z,37.67
2022-10-13T11:24:49.418Z,37.75
2022-10-13T11:27:15.713Z,38.15
2022-10-13T11:29:54.868Z,39.17
2022-10-13T11:32:36.414Z,44.10
2022-10-13T11:35:05.789Z,43.95
2022-10-13T11:37:35.152Z,42.95
2022-10-13T11:40:20.190Z,41.10
2022-10-13T11:42:58.290Z,43.63
2022-10-13T11:45:50.760Z,43.53
2022-10-13T11:48:17.375Z,44.13
2022-10-13T11:51:10.334Z,42.38
2022-10-13T11:53:53.197Z,39.92
2022-10-13T11:56:32.784Z,40.17
2022-10-13T11:58:59.099Z,45.58
2022-10-13T12:01:25.479Z,40.05
2022-10-13T12:03:51.872Z,40.58
2022-10-13T12:06:34.757Z,37.88
2022-10-13T12:09:04.257Z,41.30
2022-10-13T12:11:33.673Z,43.53
2022-10-13T12:14:00.230Z,43.70
2022-10-13T12:16:27.832Z,40.30
2022-10-13T12:19:07.468Z,43.13
2022-10-13T12:21:34.146Z,46.13
2022-10-13T12:24:09.134Z,39.65
2022-10-13T12:26:35.615Z,40.92
2022-10-13T12:29:05.047Z,40.90
2022-10-13T12:31:40.917Z,40.03
2022-10-13T12:34:27.570Z,43.08
2022-10-13T12:36:58.178Z,39.75
2022-10-13T12:39:26.817Z,37.90
2022-10-13T12:41:54.681Z,39.47
2022-10-13T12:44:24.874Z,41.47
2022-10-13T12:46:55.436Z,37.20
2022-10-13T12:49:35.695Z,37.53
2022-10-13T12:52:14.268Z,38.92
2022-10-13T12:54:48.588Z,38.97
2022-10-13T12:59:46.522Z,37.65
2022-10-13T13:02:32.516Z,38.83
2022-10-13T13:04:59.527Z,39.55
2022-10-13T13:07:39.500Z,36.97
2022-10-13T13:10:08.883Z,36.08
2022-10-13T13:12:36.951Z,39.20
2022-10-13T13:15:20.775Z,40.42
2022-10-13T13:18:02.776Z,39.27
2022-10-13T13:20:34.667Z,38.88
2022-10-13T13:23:01.910Z,39.75
2022-10-13T13:25:28.414Z,39.65
2022-10-13T13:27:54.832Z,43.53
2022-10-13T13:30:23.215Z,39.88
2022-10-13T13:32:50.145Z,39.50
2022-10-13T13:35:16.911Z,42.00
2022-10-13T13:37:48.025Z,43.55
2022-10-13T13:40:34.539Z,43.40
2022-10-13T13:43:00.942Z,43.03
2022-10-13T13:45:27.309Z,42.55
2022-10-13T13:47:57.988Z,47.53
2022-10-13T13:50:32.128Z,50.55
2022-10-13T13:52:59.069Z,52.63
2022-10-13T13:55:26.901Z,55.72
2022-10-13T13:57:53.433Z,59.33
2022-10-13T14:00:20.329Z,52.75
2022-10-13T14:02:47.066Z,52.40
2022-10-13T14:05:13.513Z,57.20
2022-10-13T14:07:40.802Z,53.75
2022-10-13T14:10:08.502Z,52.58
2022-10-13T14:12:35.551Z,64.00
2022-10-13T14:15:01.879Z,62.00
2022-10-13T14:17:28.593Z,58.72
2022-10-13T14:19:55.143Z,57.78
2022-10-13T14:22:22.530Z,60.65
2022-10-13T14:24:49.363Z,56.75
2022-10-13T14:27:15.794Z,56.60
2022-10-13T14:29:42.130Z,57.45
2022-10-13T14:32:08.544Z,61.53
2022-10-13T14:34:34.869Z,54.55
2022-10-13T14:37:01.270Z,55.17
2022-10-13T14:39:27.814Z,54.50
2022-10-13T14:41:54.726Z,54.10
2022-10-13T14:44:21.043Z,57.05
2022-10-13T14:46:47.396Z,53.63
2022-10-13T14:49:13.880Z,50.17
2022-10-13T14:51:40.223Z,57.42
2022-10-13T14:54:06.918Z,57.15
2022-10-13T14:56:34.050Z,55.78
2022-10-13T14:59:02.442Z,52.75
2022-10-13T15:01:28.897Z,53.03
2022-10-13T15:03:55.390Z,50.88
2022-10-13T15:06:24.687Z,50.58
2022-10-13T15:08:51.811Z,54.38
2022-10-13T15:11:19.500Z,52.13
2022-10-13T15:13:46.328Z,55.78
2022-10-13T15:16:22.921Z,58.00
2022-10-13T15:18:49.806Z,59.13
2022-10-13T15:21:17.099Z,64.53
2022-10-13T15:23:44.061Z,62.75
2022-10-13T15:26:12.382Z,63.38
2022-10-13T15:28:46.483Z,65.80
2022-10-13T15:31:15.521Z,63.97
2022-10-13T15:33:43.658Z,62.60
2022-10-13T15:36:09.957Z,64.85
2022-10-13T15:38:36.333Z,59.88
2022-10-13T15:41:05.209Z,60.05
2022-10-13T15:43:32.451Z,63.90
2022-10-13T15:46:04.700Z,65.97
2022-10-13T15:48:32.408Z,67.75
2022-10-13T15:50:59.051Z,65.72
2022-10-13T15:53:25.814Z,74.57
2022-10-13T15:55:52.235Z,72.47
2022-10-13T15:58:18.843Z,75.82
2022-10-13T16:00:45.332Z,73.03
2022-10-13T16:03:19.146Z,73.78
2022-10-13T16:05:46.642Z,74.85
2022-10-13T16:08:14.243Z,70.22
2022-10-13T16:10:43.884Z,72.80
2022-10-13T16:13:14.335Z,74.38
2022-10-13T16:15:41.679Z,77.68
2022-10-13T16:18:08.123Z,80.80
2022-10-13T16:20:37.594Z,76.28
2022-10-13T16:23:04.733Z,77.55
2022-10-13T16:25:31.942Z,80.50
2022-10-13T16:27:59.337Z,79.38
2022-10-13T16:30:27.667Z,82.00
2022-10-13T16:32:54.004Z,78.47
2022-10-13T16:35:20.342Z,76.65
2022-10-13T16:37:46.666Z,77.57
2022-10-13T16:40:13.013Z,80.88
2022-10-13T16:42:39.392Z,77.45
2022-10-13T16:45:06.454Z,74.05
2022-10-13T16:47:32.781Z,73.10
2022-10-13T16:49:59.093Z,76.50
2022-10-13T16:52:25.469Z,78.13
2022-10-13T16:54:51.907Z,78.80
2022-10-13T16:57:18.581Z,73.40
2022-10-13T16:59:45.037Z,73.88
2022-10-13T17:02:15.382Z,70.38
2022-10-13T17:04:42.183Z,72.47
2022-10-13T17:07:08.507Z,69.13
2022-10-13T17:09:34.980Z,72.30
2022-10-13T17:12:02.115Z,76.40
2022-10-13T17:14:28.485Z,72.93
2022-10-13T17:16:57.770Z,73.35
2022-10-13T17:19:24.385Z,76.90
2022-10-13T17:21:50.704Z,77.60
2022-10-13T17:24:17.275Z,71.63
2022-10-13T17:26:43.603Z,73.80
2022-10-13T17:29:10.113Z,74.20
2022-10-13T17:31:36.560Z,75.72
2022-10-13T17:34:02.873Z,75.22
2022-10-13T17:36:34.310Z,71.70
2022-10-13T17:39:06.507Z,79.35
2022-10-13T17:41:33.385Z,75.78
2022-10-13T17:43:59.811Z,79.20
2022-10-13T17:46:38.359Z,76.47
2022-10-13T17:49:07.889Z,71.95
2022-10-13T17:51:34.272Z,71.38
2022-10-13T17:54:00.719Z,75.50
2022-10-13T17:56:27.657Z,74.35
2022-10-13T17:58:54.500Z,78.20
2022-10-13T18:01:23.831Z,74.45
2022-10-13T18:03:52.550Z,76.88
2022-10-13T18:06:19.887Z,77.43
2022-10-13T18:08:46.268Z,75.63
2022-10-13T18:11:15.857Z,76.05
2022-10-13T18:13:43.828Z,78.15
2022-10-13T18:16:12.855Z,75.72
2022-10-13T18:18:39.292Z,76.15
2022-10-13T18:21:07.622Z,74.57
2022-10-13T18:23:35.875Z,75.88
2022-10-13T18:26:12.062Z,75.28
2022-10-13T18:28:45.337Z,74.93
2022-10-13T18:31:24.750Z,78.00
2022-10-13T18:33:52.024Z,69.68
2022-10-13T18:36:28.177Z,72.15
2022-10-13T18:38:56.610Z,70.55
2022-10-13T18:41:24.771Z,66.85
2022-10-13T18:43:52.755Z,69.97
2022-10-13T18:46:19.112Z,66.15
2022-10-13T18:48:45.636Z,63.72
2022-10-13T18:51:17.425Z,66.00
2022-10-13T18:53:46.344Z,62.65
2022-10-13T18:56:14.012Z,67.47
2022-10-13T18:58:40.490Z,73.15
2022-10-13T19:01:19.878Z,73.15
2022-10-13T19:03:53.114Z,66.28
2022-10-13T19:06:30.110Z,68.45
2022-10-13T19:09:08.111Z,66.38
2022-10-13T19:11:35.412Z,63.17
2022-10-13T19:14:02.473Z,67.63
2022-10-13T19:16:31.140Z,65.72
2022-10-13T19:18:58.117Z,60.75
2022-10-13T19:21:25.286Z,59.67
2022-10-13T19:23:51.880Z,62.90
2022-10-13T19:26:22.344Z,65.40
2022-10-13T19:28:48.777Z,58.30
2022-10-13T19:31:18.326Z,59.20
2022-10-13T19:33:47.055Z,60.28
2022-10-13T19:36:44.401Z,57.47
2022-10-13T19:39:18.040Z,53.85
2022-10-13T19:41:45.929Z,56.83
2022-10-13T19:44:13.362Z,54.08
2022-10-13T19:46:42.301Z,54.95
2022-10-13T19:49:09.204Z,55.05
2022-10-13T19:51:36.375Z,53.22
2022-10-13T19:54:03.147Z,54.83
2022-10-13T19:56:31.572Z,52.47
2022-10-13T19:58:58.656Z,53.47
2022-10-13T20:01:25.183Z,53.30
2022-10-13T20:03:52.056Z,54.47
2022-10-13T20:06:20.142Z,52.22
2022-10-13T20:08:47.754Z,52.85
2022-10-13T20:11:23.073Z,54.33
2022-10-13T20:13:50.415Z,51.10
2022-10-13T20:16:19.197Z,51.42
2022-10-13T20:18:45.637Z,55.08
2022-10-13T20:21:13.351Z,52.38
2022-10-13T20:23:40.908Z,57.35
2022-10-13T20:26:10.785Z,56.00
2022-10-13T20:28:43.362Z,55.22
2022-10-13T20:31:12.598Z,54.95
2022-10-13T20:33:39.112Z,56.45
2022-10-13T20:36:08.686Z,54.67
2022-10-13T20:38:35.961Z,62.85
2022-10-13T20:41:10.061Z,57.60
2022-10-13T20:43:36.997Z,55.80
2022-10-13T20:46:06.019Z,56.38
2022-10-13T20:48:57.870Z,55.10
2022-10-13T20:51:22.643Z,57.28
2022-10-13T20:53:49.697Z,57.42
2022-10-13T20:56:24.657Z,60.42
2022-10-13T20:58:51.848Z,56.85
2022-10-13T21:01:20.702Z,59.83
2022-10-13T21:03:51.465Z,56.80
2022-10-13T21:06:17.907Z,57.58
2022-10-13T21:08:45.328Z,61.40
2022-10-13T21:11:13.575Z,60.70
2022-10-13T21:13:41.301Z,59.15
2022-10-13T21:16:10.391Z,58.58
2022-10-13T21:18:37.085Z,57.38
2022-10-13T21:21:08.096Z,58.97
2022-10-13T21:23:34.626Z,55.90
2022-10-13T21:26:02.507Z,58.15
2022-10-13T21:28:29.857Z,59.20
2022-10-13T21:31:04.498Z,63.63
2022-10-13T21:33:33.413Z,56.58
2022-10-13T21:36:05.069Z,59.67
2022-10-13T21:38:31.414Z,57.20
2022-10-13T21:40:57.771Z,62.10
2022-10-13T21:43:24.104Z,59.90
2022-10-13T21:45:50.478Z,62.92
2022-10-13T21:48:16.863Z,62.17
2022-10-13T21:50:43.183Z,64.78
2022-10-13T21:53:09.505Z,64.43
2022-10-13T21:55:35.919Z,61.97
2022-10-13T21:58:05.130Z,64.07
2022-10-13T22:00:33.315Z,58.17
2022-10-13T22:02:59.894Z,62.28
2022-10-13T22:05:26.287Z,62.47
2022-10-13T22:07:53.333Z,62.13
2022-10-13T22:10:19.809Z,59.83
2022-10-13T22:12:46.272Z,57.30
2022-10-13T22:15:12.632Z,61.83
2022-10-13T22:17:39.075Z,66.20
2022-10-13T22:20:05.882Z,61.20
2022-10-13T22:22:32.229Z,62.00
2022-10-13T22:24:58.567Z,66.55
2022-10-13T22:27:24.935Z,63.35
2022-10-13T22:29:52.945Z,66.25
2022-10-13T22:32:19.299Z,70.45
2022-10-13T22:34:45.633Z,66.15
2022-10-13T22:37:11.953Z,67.22
2022-10-13T22:39:38.358Z,66.80
2022-10-13T22:42:04.716Z,70.60
2022-10-13T22:44:31.027Z,69.13
2022-10-13T22:46:57.357Z,69.88
2022-10-13T22:49:23.767Z,67.40
2022-10-13T22:51:50.092Z,69.55
2022-10-13T22:54:16.449Z,71.32
2022-10-13T22:56:43.073Z,72.45
2022-10-13T22:59:11.075Z,73.60
2022-10-13T23:01:37.563Z,73.53
2022-10-13T23:04:04.276Z,73.38
2022-10-13T23:06:33.537Z,70.30
2022-10-13T23:09:05.925Z,60.90
2022-10-13T23:11:33.266Z,60.75
2022-10-13T23:14:01.361Z,61.60
2022-10-13T23:16:27.947Z,61.67
2022-10-13T23:18:54.687Z,61.28
2022-10-13T23:21:23.271Z,59.92
2022-10-13T23:23:57.586Z,61.05
2022-10-13T23:28:51.228Z,53.08
2022-10-13T23:31:18.511Z,54.67
2022-10-13T23:33:45.506Z,57.25
2022-10-13T23:36:20.899Z,60.67
2022-10-13T23:38:47.583Z,60.30
2022-10-13T23:41:15.995Z,59.38
2022-10-13T23:43:43.050Z,56.47
2022-10-13T23:46:10.629Z,58.30
2022-10-13T23:48:38.073Z,56.90
2022-10-13T23:51:13.893Z,55.78
2022-10-13T23:53:41.098Z,57.42
2022-10-13T23:56:08.741Z,56.75
2022-10-13T23:58:37.216Z,58.90
